sensor_id;sensor_type;location;lat;lon;timestamp;temperature;humidity
33741;DHT22;20065;48.380;10.892;2022-11-15T00:02:09;7.90;99.90
33741;DHT22;20065;48.380;10.892;2022-11-15T00:05:14;7.90;99.90
33741;DHT22;20065;48.380;10.892;2022-11-15T00:08:19;7.80;99.90
33741;DHT22;20065;48.380;10.892;2022-11-15T00:11:24;7.90;99.90
33741;DHT22;20065;48.380;10.892;2022-11-15T00:14:29;7.90;99.90
33741;DHT22;20065;48.380;10.892;2022-11-15T00:17:34;8.00;99.90
33741;DHT22;20065;48.380;10.892;2022-11-15T00:20:39;8.00;99.90
33741;DHT22;20065;48.380;10.892;2022-11-15T00:23:44;8.00;99.90
33741;DHT22;20065;48.380;10.892;2022-11-15T00:26:49;8.00;99.90
33741;DHT22;20065;48.380;10.892;2022-11-15T00:29:54;8.00;99.90
33741;DHT22;20065;48.380;10.892;2022-11-15T00:33:02;8.00;99.90
33741;DHT22;20065;48.380;10.892;2022-11-15T00:36:08;8.00;99.90
33741;DHT22;20065;48.380;10.892;2022-11-15T00:39:13;8.00;99.90
33741;DHT22;20065;48.380;10.892;2022-11-15T00:42:18;8.00;99.90
33741;DHT22;20065;48.380;10.892;2022-11-15T00:45:23;8.00;99.90
33741;DHT22;20065;48.380;10.892;2022-11-15T00:48:28;8.00;99.90
33741;DHT22;20065;48.380;10.892;2022-11-15T00:51:33;8.00;99.90
33741;DHT22;20065;48.380;10.892;2022-11-15T00:54:41;7.90;99.90
33741;DHT22;20065;48.380;10.892;2022-11-15T00:57:46;7.90;99.90
33741;DHT22;20065;48.380;10.892;2022-11-15T01:00:51;7.80;99.90
33741;DHT22;20065;48.380;10.892;2022-11-15T01:03:56;7.70;99.90
33741;DHT22;20065;48.380;10.892;2022-11-15T01:07:01;7.70;99.90
33741;DHT22;20065;48.380;10.892;2022-11-15T01:10:07;7.60;99.90
33741;DHT22;20065;48.380;10.892;2022-11-15T01:13:11;7.50;99.90
33741;DHT22;20065;48.380;10.892;2022-11-15T01:16:17;7.40;99.90
33741;DHT22;20065;48.380;10.892;2022-11-15T01:19:23;7.40;99.90
33741;DHT22;20065;48.380;10.892;2022-11-15T01:22:31;7.20;99.90
33741;DHT22;20065;48.380;10.892;2022-11-15T01:25:35;7.10;99.90
33741;DHT22;20065;48.380;10.892;2022-11-15T01:28:41;7.10;99.90
33741;DHT22;20065;48.380;10.892;2022-11-15T01:31:46;7.00;99.90
33741;DHT22;20065;48.380;10.892;2022-11-15T01:34:51;6.90;99.90
33741;DHT22;20065;48.380;10.892;2022-11-15T01:37:55;6.90;99.90
33741;DHT22;20065;48.380;10.892;2022-11-15T01:41:00;6.70;99.90
33741;DHT22;20065;48.380;10.892;2022-11-15T01:47:40;6.40;99.90
33741;DHT22;20065;48.380;10.892;2022-11-15T01:50:45;6.20;99.90
33741;DHT22;20065;48.380;10.892;2022-11-15T01:53:53;6.10;99.90
33741;DHT22;20065;48.380;10.892;2022-11-15T01:57:03;6.20;99.90
33741;DHT22;20065;48.380;10.892;2022-11-15T02:00:11;6.20;99.90
33741;DHT22;20065;48.380;10.892;2022-11-15T02:03:16;6.20;99.90
33741;DHT22;20065;48.380;10.892;2022-11-15T02:06:21;6.30;99.90
33741;DHT22;20065;48.380;10.892;2022-11-15T02:09:27;6.30;99.90
33741;DHT22;20065;48.380;10.892;2022-11-15T02:12:32;6.30;99.90
33741;DHT22;20065;48.380;10.892;2022-11-15T02:15:43;6.30;99.90
33741;DHT22;20065;48.380;10.892;2022-11-15T02:18:57;6.30;99.90
33741;DHT22;20065;48.380;10.892;2022-11-15T02:29:10;6.30;99.90
33741;DHT22;20065;48.380;10.892;2022-11-15T02:42:36;6.30;99.90
33741;DHT22;20065;48.380;10.892;2022-11-15T02:46:27;6.30;99.90
33741;DHT22;20065;48.380;10.892;2022-11-15T02:49:58;6.20;99.90
33741;DHT22;20065;48.380;10.892;2022-11-15T02:53:05;6.10;99.90
33741;DHT22;20065;48.380;10.892;2022-11-15T02:56:11;6.00;99.90
33741;DHT22;20065;48.380;10.892;2022-11-15T03:02:40;6.00;99.90
33741;DHT22;20065;48.380;10.892;2022-11-15T03:10:15;6.00;99.90
33741;DHT22;20065;48.380;10.892;2022-11-15T03:13:27;6.00;99.90
33741;DHT22;20065;48.380;10.892;2022-11-15T03:17:05;6.00;99.90
33741;DHT22;20065;48.380;10.892;2022-11-15T03:20:16;5.80;99.90
33741;DHT22;20065;48.380;10.892;2022-11-15T03:23:22;5.80;99.90
33741;DHT22;20065;48.380;10.892;2022-11-15T03:26:28;5.80;99.90
33741;DHT22;20065;48.380;10.892;2022-11-15T03:29:37;5.80;99.90
33741;DHT22;20065;48.380;10.892;2022-11-15T03:32:56;5.80;99.90
33741;DHT22;20065;48.380;10.892;2022-11-15T03:36:01;5.80;99.90
33741;DHT22;20065;48.380;10.892;2022-11-15T03:39:07;5.80;99.90
33741;DHT22;20065;48.380;10.892;2022-11-15T03:42:23;5.70;99.90
33741;DHT22;20065;48.380;10.892;2022-11-15T03:45:39;5.70;99.90
33741;DHT22;20065;48.380;10.892;2022-11-15T03:49:05;5.70;99.90
33741;DHT22;20065;48.380;10.892;2022-11-15T03:52:11;5.70;99.90
33741;DHT22;20065;48.380;10.892;2022-11-15T03:55:18;5.70;99.90
33741;DHT22;20065;48.380;10.892;2022-11-15T03:58:23;5.70;99.90
33741;DHT22;20065;48.380;10.892;2022-11-15T04:01:28;5.70;99.90
33741;DHT22;20065;48.380;10.892;2022-11-15T04:04:33;5.70;99.90
33741;DHT22;20065;48.380;10.892;2022-11-15T04:07:38;5.60;99.90
33741;DHT22;20065;48.380;10.892;2022-11-15T04:10:43;5.60;99.90
33741;DHT22;20065;48.380;10.892;2022-11-15T04:13:47;5.60;99.90
33741;DHT22;20065;48.380;10.892;2022-11-15T04:16:52;5.50;99.90
33741;DHT22;20065;48.380;10.892;2022-11-15T04:19:57;5.50;99.90
33741;DHT22;20065;48.380;10.892;2022-11-15T04:23:22;5.40;99.90
33741;DHT22;20065;48.380;10.892;2022-11-15T04:26:45;5.30;99.90
33741;DHT22;20065;48.380;10.892;2022-11-15T04:29:51;5.30;99.90
33741;DHT22;20065;48.380;10.892;2022-11-15T04:32:55;5.30;99.90
33741;DHT22;20065;48.380;10.892;2022-11-15T04:36:00;5.30;99.90
33741;DHT22;20065;48.380;10.892;2022-11-15T04:39:24;5.40;99.90
33741;DHT22;20065;48.380;10.892;2022-11-15T04:42:29;5.30;99.90
33741;DHT22;20065;48.380;10.892;2022-11-15T04:45:33;5.30;99.90
33741;DHT22;20065;48.380;10.892;2022-11-15T04:48:38;5.20;99.90
33741;DHT22;20065;48.380;10.892;2022-11-15T04:51:43;5.20;99.90
33741;DHT22;20065;48.380;10.892;2022-11-15T04:54:48;5.10;99.90
33741;DHT22;20065;48.380;10.892;2022-11-15T04:58:01;5.00;99.90
33741;DHT22;20065;48.380;10.892;2022-11-15T05:01:08;5.00;99.90
33741;DHT22;20065;48.380;10.892;2022-11-15T05:04:13;5.00;99.90
33741;DHT22;20065;48.380;10.892;2022-11-15T05:07:24;5.10;99.90
33741;DHT22;20065;48.380;10.892;2022-11-15T05:10:28;5.20;99.90
33741;DHT22;20065;48.380;10.892;2022-11-15T05:13:33;5.10;99.90
33741;DHT22;20065;48.380;10.892;2022-11-15T05:16:38;5.10;99.90
33741;DHT22;20065;48.380;10.892;2022-11-15T05:19:43;5.20;99.90
33741;DHT22;20065;48.380;10.892;2022-11-15T05:22:53;5.10;99.90
33741;DHT22;20065;48.380;10.892;2022-11-15T05:26:00;5.10;99.90
33741;DHT22;20065;48.380;10.892;2022-11-15T05:29:04;5.10;99.90
33741;DHT22;20065;48.380;10.892;2022-11-15T05:32:12;5.20;99.90
33741;DHT22;20065;48.380;10.892;2022-11-15T05:35:36;5.20;99.90
33741;DHT22;20065;48.380;10.892;2022-11-15T05:38:43;5.20;99.90
33741;DHT22;20065;48.380;10.892;2022-11-15T05:41:52;5.10;99.90
33741;DHT22;20065;48.380;10.892;2022-11-15T05:45:03;5.10;99.90
33741;DHT22;20065;48.380;10.892;2022-11-15T05:48:13;5.10;99.90
33741;DHT22;20065;48.380;10.892;2022-11-15T05:51:19;5.10;99.90
33741;DHT22;20065;48.380;10.892;2022-11-15T05:54:26;5.10;99.90
33741;DHT22;20065;48.380;10.892;2022-11-15T05:57:31;5.10;99.90
33741;DHT22;20065;48.380;10.892;2022-11-15T06:00:36;5.10;99.90
33741;DHT22;20065;48.380;10.892;2022-11-15T06:03:41;5.10;99.90
33741;DHT22;20065;48.380;10.892;2022-11-15T06:06:46;5.10;99.90
33741;DHT22;20065;48.380;10.892;2022-11-15T06:09:50;5.10;99.90
33741;DHT22;20065;48.380;10.892;2022-11-15T06:12:59;5.10;99.90
33741;DHT22;20065;48.380;10.892;2022-11-15T06:16:04;5.10;99.90
33741;DHT22;20065;48.380;10.892;2022-11-15T06:19:09;5.10;99.90
33741;DHT22;20065;48.380;10.892;2022-11-15T06:22:14;5.00;99.90
33741;DHT22;20065;48.380;10.892;2022-11-15T06:25:19;5.00;99.90
33741;DHT22;20065;48.380;10.892;2022-11-15T06:28:23;5.10;99.90
33741;DHT22;20065;48.380;10.892;2022-11-15T06:31:28;5.10;99.90
33741;DHT22;20065;48.380;10.892;2022-11-15T06:34:33;5.20;99.90
33741;DHT22;20065;48.380;10.892;2022-11-15T06:37:37;5.20;99.90
33741;DHT22;20065;48.380;10.892;2022-11-15T06:40:42;5.10;99.90
33741;DHT22;20065;48.380;10.892;2022-11-15T06:43:47;5.00;99.90
33741;DHT22;20065;48.380;10.892;2022-11-15T06:46:52;5.00;99.90
33741;DHT22;20065;48.380;10.892;2022-11-15T06:49:57;5.00;99.90
33741;DHT22;20065;48.380;10.892;2022-11-15T06:53:05;5.00;99.90
33741;DHT22;20065;48.380;10.892;2022-11-15T06:56:10;5.00;99.90
33741;DHT22;20065;48.380;10.892;2022-11-15T06:59:18;5.00;99.90
33741;DHT22;20065;48.380;10.892;2022-11-15T07:02:23;5.10;99.90
33741;DHT22;20065;48.380;10.892;2022-11-15T07:05:28;5.10;99.90
33741;DHT22;20065;48.380;10.892;2022-11-15T07:08:34;5.10;99.90
33741;DHT22;20065;48.380;10.892;2022-11-15T07:11:40;5.20;99.90
33741;DHT22;20065;48.380;10.892;2022-11-15T07:14:44;5.20;99.90
33741;DHT22;20065;48.380;10.892;2022-11-15T07:17:50;5.20;99.90
33741;DHT22;20065;48.380;10.892;2022-11-15T07:20:55;5.20;99.90
33741;DHT22;20065;48.380;10.892;2022-11-15T07:23:59;5.20;99.90
33741;DHT22;20065;48.380;10.892;2022-11-15T07:27:04;5.30;99.90
33741;DHT22;20065;48.380;10.892;2022-11-15T07:30:10;5.30;99.90
33741;DHT22;20065;48.380;10.892;2022-11-15T07:33:15;5.30;99.90
33741;DHT22;20065;48.380;10.892;2022-11-15T07:36:19;5.30;99.90
33741;DHT22;20065;48.380;10.892;2022-11-15T07:39:24;5.40;99.90
33741;DHT22;20065;48.380;10.892;2022-11-15T07:42:31;5.40;99.90
33741;DHT22;20065;48.380;10.892;2022-11-15T07:45:55;5.50;99.90
33741;DHT22;20065;48.380;10.892;2022-11-15T07:49:00;5.60;99.90
33741;DHT22;20065;48.380;10.892;2022-11-15T07:52:05;5.80;99.90
33741;DHT22;20065;48.380;10.892;2022-11-15T07:55:10;5.80;99.90
33741;DHT22;20065;48.380;10.892;2022-11-15T07:58:15;5.90;99.90
33741;DHT22;20065;48.380;10.892;2022-11-15T08:01:19;6.00;99.90
33741;DHT22;20065;48.380;10.892;2022-11-15T08:04:24;6.10;99.90
33741;DHT22;20065;48.380;10.892;2022-11-15T08:07:30;6.30;99.90
33741;DHT22;20065;48.380;10.892;2022-11-15T08:10:36;6.40;99.90
33741;DHT22;20065;48.380;10.892;2022-11-15T08:13:41;6.50;99.90
33741;DHT22;20065;48.380;10.892;2022-11-15T08:16:46;6.80;99.90
33741;DHT22;20065;48.380;10.892;2022-11-15T08:19:51;7.30;99.90
33741;DHT22;20065;48.380;10.892;2022-11-15T08:22:57;8.10;99.90
33741;DHT22;20065;48.380;10.892;2022-11-15T08:26:03;9.60;99.90
33741;DHT22;20065;48.380;10.892;2022-11-15T08:29:08;11.30;99.90
33741;DHT22;20065;48.380;10.892;2022-11-15T08:32:12;12.60;99.90
33741;DHT22;20065;48.380;10.892;2022-11-15T08:35:18;13.90;99.90
33741;DHT22;20065;48.380;10.892;2022-11-15T08:38:23;14.80;99.90
33741;DHT22;20065;48.380;10.892;2022-11-15T08:41:34;15.00;99.90
33741;DHT22;20065;48.380;10.892;2022-11-15T08:44:40;14.90;99.90
33741;DHT22;20065;48.380;10.892;2022-11-15T08:47:44;14.30;99.90
33741;DHT22;20065;48.380;10.892;2022-11-15T08:50:52;14.10;99.90
33741;DHT22;20065;48.380;10.892;2022-11-15T08:53:57;13.30;99.90
33741;DHT22;20065;48.380;10.892;2022-11-15T08:57:01;13.70;99.90
33741;DHT22;20065;48.380;10.892;2022-11-15T09:00:08;15.60;99.90
33741;DHT22;20065;48.380;10.892;2022-11-15T09:03:13;17.00;99.90
33741;DHT22;20065;48.380;10.892;2022-11-15T09:06:18;16.40;99.90
33741;DHT22;20065;48.380;10.892;2022-11-15T09:09:23;14.50;99.90
33741;DHT22;20065;48.380;10.892;2022-11-15T09:12:27;13.20;99.90
33741;DHT22;20065;48.380;10.892;2022-11-15T09:15:32;12.20;99.90
33741;DHT22;20065;48.380;10.892;2022-11-15T09:18:37;11.70;99.90
33741;DHT22;20065;48.380;10.892;2022-11-15T09:21:42;11.60;99.90
33741;DHT22;20065;48.380;10.892;2022-11-15T09:24:47;12.00;99.90
33741;DHT22;20065;48.380;10.892;2022-11-15T09:27:52;12.80;99.90
33741;DHT22;20065;48.380;10.892;2022-11-15T09:31:03;14.50;99.90
33741;DHT22;20065;48.380;10.892;2022-11-15T09:34:08;16.30;99.90
33741;DHT22;20065;48.380;10.892;2022-11-15T09:37:13;17.80;99.90
33741;DHT22;20065;48.380;10.892;2022-11-15T09:40:19;18.60;99.90
33741;DHT22;20065;48.380;10.892;2022-11-15T09:50:56;19.90;97.10
33741;DHT22;20065;48.380;10.892;2022-11-15T09:53:51;19.10;98.10
33741;DHT22;20065;48.380;10.892;2022-11-15T09:56:42;18.40;98.60
33741;DHT22;20065;48.380;10.892;2022-11-15T10:02:51;16.90;99.60
33741;DHT22;20065;48.380;10.892;2022-11-15T10:05:46;15.50;99.90
33741;DHT22;20065;48.380;10.892;2022-11-15T10:11:40;13.90;99.90
33741;DHT22;20065;48.380;10.892;2022-11-15T10:14:28;14.20;99.90
33741;DHT22;20065;48.380;10.892;2022-11-15T10:20:32;16.70;99.90
33741;DHT22;20065;48.380;10.892;2022-11-15T10:23:22;17.10;99.90
33741;DHT22;20065;48.380;10.892;2022-11-15T10:26:15;16.60;99.90
33741;DHT22;20065;48.380;10.892;2022-11-15T10:29:02;16.70;99.90
33741;DHT22;20065;48.380;10.892;2022-11-15T10:31:48;16.30;99.90
33741;DHT22;20065;48.380;10.892;2022-11-15T10:34:36;15.70;99.90
33741;DHT22;20065;48.380;10.892;2022-11-15T10:37:30;15.30;99.90
33741;DHT22;20065;48.380;10.892;2022-11-15T10:40:25;15.40;99.90
33741;DHT22;20065;48.380;10.892;2022-11-15T10:43:13;14.80;99.90
33741;DHT22;20065;48.380;10.892;2022-11-15T10:46:21;14.60;99.90
33741;DHT22;20065;48.380;10.892;2022-11-15T10:52:18;14.60;99.90
33741;DHT22;20065;48.380;10.892;2022-11-15T10:55:27;14.00;99.90
33741;DHT22;20065;48.380;10.892;2022-11-15T11:01:21;13.20;99.90
33741;DHT22;20065;48.380;10.892;2022-11-15T11:04:09;13.10;99.90
33741;DHT22;20065;48.380;10.892;2022-11-15T11:06:57;12.90;99.90
33741;DHT22;20065;48.380;10.892;2022-11-15T11:09:45;12.90;99.90
33741;DHT22;20065;48.380;10.892;2022-11-15T11:12:37;12.80;99.90
33741;DHT22;20065;48.380;10.892;2022-11-15T11:15:26;12.80;99.90
33741;DHT22;20065;48.380;10.892;2022-11-15T11:18:32;12.80;99.90
33741;DHT22;20065;48.380;10.892;2022-11-15T11:21:43;12.80;99.90
33741;DHT22;20065;48.380;10.892;2022-11-15T11:31:20;12.60;99.90
33741;DHT22;20065;48.380;10.892;2022-11-15T11:37:47;12.40;99.90
33741;DHT22;20065;48.380;10.892;2022-11-15T11:40:44;12.50;99.90
33741;DHT22;20065;48.380;10.892;2022-11-15T11:49:52;12.40;99.90
33741;DHT22;20065;48.380;10.892;2022-11-15T11:55:54;12.40;99.90
33741;DHT22;20065;48.380;10.892;2022-11-15T11:58:45;12.50;99.90
33741;DHT22;20065;48.380;10.892;2022-11-15T12:01:39;12.60;99.90
33741;DHT22;20065;48.380;10.892;2022-11-15T12:04:30;12.60;99.90
33741;DHT22;20065;48.380;10.892;2022-11-15T12:07:24;12.60;99.90
33741;DHT22;20065;48.380;10.892;2022-11-15T12:10:28;12.70;99.90
33741;DHT22;20065;48.380;10.892;2022-11-15T12:13:23;12.60;99.90
33741;DHT22;20065;48.380;10.892;2022-11-15T12:16:27;12.60;99.90
33741;DHT22;20065;48.380;10.892;2022-11-15T12:19:14;12.60;99.90
33741;DHT22;20065;48.380;10.892;2022-11-15T12:22:09;12.50;99.90
33741;DHT22;20065;48.380;10.892;2022-11-15T12:25:02;12.50;99.90
33741;DHT22;20065;48.380;10.892;2022-11-15T12:28:01;12.40;99.90
33741;DHT22;20065;48.380;10.892;2022-11-15T12:31:03;12.40;99.90
33741;DHT22;20065;48.380;10.892;2022-11-15T12:33:55;12.30;99.90
33741;DHT22;20065;48.380;10.892;2022-11-15T12:36:46;12.30;99.90
33741;DHT22;20065;48.380;10.892;2022-11-15T12:40:18;12.30;99.90
33741;DHT22;20065;48.380;10.892;2022-11-15T12:43:38;12.30;99.90
33741;DHT22;20065;48.380;10.892;2022-11-15T12:52:13;12.20;99.90
33741;DHT22;20065;48.380;10.892;2022-11-15T12:55:01;12.20;99.90
33741;DHT22;20065;48.380;10.892;2022-11-15T12:57:47;12.10;99.90
33741;DHT22;20065;48.380;10.892;2022-11-15T13:03:24;12.10;99.90
33741;DHT22;20065;48.380;10.892;2022-11-15T13:09:51;12.10;99.90
33741;DHT22;20065;48.380;10.892;2022-11-15T13:15:34;12.20;99.90
33741;DHT22;20065;48.380;10.892;2022-11-15T13:18:38;12.30;99.90
33741;DHT22;20065;48.380;10.892;2022-11-15T13:21:25;12.30;99.90
33741;DHT22;20065;48.380;10.892;2022-11-15T13:24:29;12.30;99.90
33741;DHT22;20065;48.380;10.892;2022-11-15T13:27:18;12.30;99.90
33741;DHT22;20065;48.380;10.892;2022-11-15T13:30:12;12.40;99.90
33741;DHT22;20065;48.380;10.892;2022-11-15T13:33:13;12.30;99.90
33741;DHT22;20065;48.380;10.892;2022-11-15T13:36:22;12.40;99.90
33741;DHT22;20065;48.380;10.892;2022-11-15T13:39:32;12.40;99.90
33741;DHT22;20065;48.380;10.892;2022-11-15T13:42:20;12.40;99.90
33741;DHT22;20065;48.380;10.892;2022-11-15T13:45:13;12.40;99.90
33741;DHT22;20065;48.380;10.892;2022-11-15T13:48:03;12.40;99.90
33741;DHT22;20065;48.380;10.892;2022-11-15T13:50:49;12.40;99.90
33741;DHT22;20065;48.380;10.892;2022-11-15T13:53:37;12.30;99.90
33741;DHT22;20065;48.380;10.892;2022-11-15T13:56:26;12.30;99.90
33741;DHT22;20065;48.380;10.892;2022-11-15T13:59:24;12.20;99.90
33741;DHT22;20065;48.380;10.892;2022-11-15T14:02:21;12.10;99.90
33741;DHT22;20065;48.380;10.892;2022-11-15T14:05:18;12.00;99.90
33741;DHT22;20065;48.380;10.892;2022-11-15T14:08:25;11.90;99.90
33741;DHT22;20065;48.380;10.892;2022-11-15T14:11:17;11.80;99.90
33741;DHT22;20065;48.380;10.892;2022-11-15T14:14:13;11.70;99.90
33741;DHT22;20065;48.380;10.892;2022-11-15T14:17:01;11.70;99.90
33741;DHT22;20065;48.380;10.892;2022-11-15T14:19:47;11.60;99.90
33741;DHT22;20065;48.380;10.892;2022-11-15T14:22:33;11.50;99.90
33741;DHT22;20065;48.380;10.892;2022-11-15T14:25:22;11.50;99.90
33741;DHT22;20065;48.380;10.892;2022-11-15T14:30:59;11.60;99.90
33741;DHT22;20065;48.380;10.892;2022-11-15T14:33:46;11.50;99.90
33741;DHT22;20065;48.380;10.892;2022-11-15T14:36:32;11.60;99.90
33741;DHT22;20065;48.380;10.892;2022-11-15T14:39:18;11.60;99.90
33741;DHT22;20065;48.380;10.892;2022-11-15T14:42:08;11.70;99.90
33741;DHT22;20065;48.380;10.892;2022-11-15T14:44:55;11.80;99.90
33741;DHT22;20065;48.380;10.892;2022-11-15T14:47:42;11.90;99.90
33741;DHT22;20065;48.380;10.892;2022-11-15T14:50:29;12.00;99.90
33741;DHT22;20065;48.380;10.892;2022-11-15T14:53:16;12.00;99.90
33741;DHT22;20065;48.380;10.892;2022-11-15T14:56:03;11.90;99.90
33741;DHT22;20065;48.380;10.892;2022-11-15T14:58:49;11.90;99.90
33741;DHT22;20065;48.380;10.892;2022-11-15T15:01:36;11.90;99.90
33741;DHT22;20065;48.380;10.892;2022-11-15T15:04:22;11.80;99.90
33741;DHT22;20065;48.380;10.892;2022-11-15T15:07:08;11.60;99.90
33741;DHT22;20065;48.380;10.892;2022-11-15T15:09:54;11.60;99.90
33741;DHT22;20065;48.380;10.892;2022-11-15T15:12:41;11.60;99.90
33741;DHT22;20065;48.380;10.892;2022-11-15T15:15:34;11.60;99.90
33741;DHT22;20065;48.380;10.892;2022-11-15T15:18:20;11.70;99.90
33741;DHT22;20065;48.380;10.892;2022-11-15T15:24:14;11.60;99.90
33741;DHT22;20065;48.380;10.892;2022-11-15T15:27:03;11.50;99.90
33741;DHT22;20065;48.380;10.892;2022-11-15T15:29:49;11.40;99.90
33741;DHT22;20065;48.380;10.892;2022-11-15T15:32:37;11.30;99.90
33741;DHT22;20065;48.380;10.892;2022-11-15T15:35:23;11.20;99.90
33741;DHT22;20065;48.380;10.892;2022-11-15T15:38:13;11.20;99.90
33741;DHT22;20065;48.380;10.892;2022-11-15T15:40:59;11.10;99.90
33741;DHT22;20065;48.380;10.892;2022-11-15T15:43:47;11.00;99.90
33741;DHT22;20065;48.380;10.892;2022-11-15T15:46:34;11.00;99.90
33741;DHT22;20065;48.380;10.892;2022-11-15T15:49:22;11.00;99.90
33741;DHT22;20065;48.380;10.892;2022-11-15T15:52:08;10.90;99.90
33741;DHT22;20065;48.380;10.892;2022-11-15T15:54:54;10.90;99.90
33741;DHT22;20065;48.380;10.892;2022-11-15T15:57:40;10.90;99.90
33741;DHT22;20065;48.380;10.892;2022-11-15T16:00:26;10.90;99.90
33741;DHT22;20065;48.380;10.892;2022-11-15T16:03:13;10.80;99.90
33741;DHT22;20065;48.380;10.892;2022-11-15T16:05:59;10.90;99.90
33741;DHT22;20065;48.380;10.892;2022-11-15T16:08:45;10.80;99.90
33741;DHT22;20065;48.380;10.892;2022-11-15T16:11:31;10.80;99.90
33741;DHT22;20065;48.380;10.892;2022-11-15T16:14:20;10.80;99.90
33741;DHT22;20065;48.380;10.892;2022-11-15T16:17:20;10.80;99.90
33741;DHT22;20065;48.380;10.892;2022-11-15T16:20:37;10.80;99.90
33741;DHT22;20065;48.380;10.892;2022-11-15T16:23:22;10.80;99.90
33741;DHT22;20065;48.380;10.892;2022-11-15T16:26:26;10.80;99.90
33741;DHT22;20065;48.380;10.892;2022-11-15T16:29:13;10.80;99.90
33741;DHT22;20065;48.380;10.892;2022-11-15T16:31:59;10.80;99.90
33741;DHT22;20065;48.380;10.892;2022-11-15T16:34:46;10.70;99.90
33741;DHT22;20065;48.380;10.892;2022-11-15T16:37:32;10.70;99.90
33741;DHT22;20065;48.380;10.892;2022-11-15T16:40:33;10.70;99.90
33741;DHT22;20065;48.380;10.892;2022-11-15T16:43:20;10.70;99.90
33741;DHT22;20065;48.380;10.892;2022-11-15T16:46:27;10.70;99.90
33741;DHT22;20065;48.380;10.892;2022-11-15T16:49:14;10.70;99.90
33741;DHT22;20065;48.380;10.892;2022-11-15T16:52:01;10.70;99.90
33741;DHT22;20065;48.380;10.892;2022-11-15T16:54:47;10.70;99.90
33741;DHT22;20065;48.380;10.892;2022-11-15T16:57:33;10.70;99.90
33741;DHT22;20065;48.380;10.892;2022-11-15T17:00:20;10.70;99.90
33741;DHT22;20065;48.380;10.892;2022-11-15T17:03:07;10.60;99.90
33741;DHT22;20065;48.380;10.892;2022-11-15T17:05:57;10.60;99.90
33741;DHT22;20065;48.380;10.892;2022-11-15T17:08:45;10.50;99.90
33741;DHT22;20065;48.380;10.892;2022-11-15T17:11:31;10.50;99.90
33741;DHT22;20065;48.380;10.892;2022-11-15T17:14:18;10.50;99.90
33741;DHT22;20065;48.380;10.892;2022-11-15T17:17:04;10.40;99.90
33741;DHT22;20065;48.380;10.892;2022-11-15T17:19:51;10.40;99.90
33741;DHT22;20065;48.380;10.892;2022-11-15T17:22:38;10.40;99.90
33741;DHT22;20065;48.380;10.892;2022-11-15T17:25:24;10.40;99.90
33741;DHT22;20065;48.380;10.892;2022-11-15T17:28:10;10.40;99.90
33741;DHT22;20065;48.380;10.892;2022-11-15T17:30:56;10.40;99.90
33741;DHT22;20065;48.380;10.892;2022-11-15T17:33:44;10.40;99.90
33741;DHT22;20065;48.380;10.892;2022-11-15T17:36:30;10.30;99.90
33741;DHT22;20065;48.380;10.892;2022-11-15T17:39:17;10.30;99.90
33741;DHT22;20065;48.380;10.892;2022-11-15T17:42:04;10.30;99.90
33741;DHT22;20065;48.380;10.892;2022-11-15T17:44:51;10.30;99.90
33741;DHT22;20065;48.380;10.892;2022-11-15T17:47:38;10.30;99.90
33741;DHT22;20065;48.380;10.892;2022-11-15T17:50:24;10.30;99.90
33741;DHT22;20065;48.380;10.892;2022-11-15T17:53:11;10.30;99.90
33741;DHT22;20065;48.380;10.892;2022-11-15T17:56:11;10.30;99.90
33741;DHT22;20065;48.380;10.892;2022-11-15T17:58:59;10.30;99.90
33741;DHT22;20065;48.380;10.892;2022-11-15T18:01:45;10.30;99.90
33741;DHT22;20065;48.380;10.892;2022-11-15T18:04:31;10.40;99.90
33741;DHT22;20065;48.380;10.892;2022-11-15T18:07:18;10.40;99.90
33741;DHT22;20065;48.380;10.892;2022-11-15T18:10:05;10.40;99.90
33741;DHT22;20065;48.380;10.892;2022-11-15T18:12:51;10.40;99.90
33741;DHT22;20065;48.380;10.892;2022-11-15T18:15:37;10.40;99.90
33741;DHT22;20065;48.380;10.892;2022-11-15T18:18:24;10.40;99.90
33741;DHT22;20065;48.380;10.892;2022-11-15T18:21:13;10.40;99.90
33741;DHT22;20065;48.380;10.892;2022-11-15T18:24:01;10.40;99.90
33741;DHT22;20065;48.380;10.892;2022-11-15T18:26:47;10.30;99.90
33741;DHT22;20065;48.380;10.892;2022-11-15T18:29:33;10.40;99.90
33741;DHT22;20065;48.380;10.892;2022-11-15T18:32:22;10.40;99.90
33741;DHT22;20065;48.380;10.892;2022-11-15T18:35:09;10.40;99.90
33741;DHT22;20065;48.380;10.892;2022-11-15T18:37:55;10.30;99.90
33741;DHT22;20065;48.380;10.892;2022-11-15T18:40:41;10.40;99.90
33741;DHT22;20065;48.380;10.892;2022-11-15T18:43:28;10.40;99.90
33741;DHT22;20065;48.380;10.892;2022-11-15T18:46:15;10.40;99.90
33741;DHT22;20065;48.380;10.892;2022-11-15T18:49:02;10.30;99.90
33741;DHT22;20065;48.380;10.892;2022-11-15T18:51:49;10.30;99.90
33741;DHT22;20065;48.380;10.892;2022-11-15T18:54:35;10.30;99.90
33741;DHT22;20065;48.380;10.892;2022-11-15T18:57:22;10.30;99.90
33741;DHT22;20065;48.380;10.892;2022-11-15T19:00:09;10.20;99.90
33741;DHT22;20065;48.380;10.892;2022-11-15T19:02:56;10.30;99.90
33741;DHT22;20065;48.380;10.892;2022-11-15T19:05:42;10.30;99.90
33741;DHT22;20065;48.380;10.892;2022-11-15T19:08:28;10.30;99.90
33741;DHT22;20065;48.380;10.892;2022-11-15T19:11:20;10.20;99.90
33741;DHT22;20065;48.380;10.892;2022-11-15T19:14:11;10.20;99.90
33741;DHT22;20065;48.380;10.892;2022-11-15T19:16:58;10.10;99.90
33741;DHT22;20065;48.380;10.892;2022-11-15T19:19:44;10.10;99.90
33741;DHT22;20065;48.380;10.892;2022-11-15T19:22:30;10.00;99.90
33741;DHT22;20065;48.380;10.892;2022-11-15T19:25:16;10.00;99.90
33741;DHT22;20065;48.380;10.892;2022-11-15T19:28:03;10.00;99.90
33741;DHT22;20065;48.380;10.892;2022-11-15T19:30:50;10.00;99.90
33741;DHT22;20065;48.380;10.892;2022-11-15T19:33:37;10.00;99.90
33741;DHT22;20065;48.380;10.892;2022-11-15T19:36:27;10.00;99.90
33741;DHT22;20065;48.380;10.892;2022-11-15T19:39:14;10.00;99.90
33741;DHT22;20065;48.380;10.892;2022-11-15T19:42:02;9.90;99.90
33741;DHT22;20065;48.380;10.892;2022-11-15T19:44:49;10.00;99.90
33741;DHT22;20065;48.380;10.892;2022-11-15T19:47:35;10.00;99.90
33741;DHT22;20065;48.380;10.892;2022-11-15T19:50:21;9.90;99.90
33741;DHT22;20065;48.380;10.892;2022-11-15T19:53:07;9.90;99.90
33741;DHT22;20065;48.380;10.892;2022-11-15T19:56:00;9.90;99.90
33741;DHT22;20065;48.380;10.892;2022-11-15T19:58:54;9.90;99.90
33741;DHT22;20065;48.380;10.892;2022-11-15T20:01:40;9.90;99.90
33741;DHT22;20065;48.380;10.892;2022-11-15T20:04:27;9.90;99.90
33741;DHT22;20065;48.380;10.892;2022-11-15T20:07:13;9.80;99.90
33741;DHT22;20065;48.380;10.892;2022-11-15T20:09:59;9.80;99.90